Terminal Aerodrome Forecast
Issued by NWS

Home | Current Version | Previous Version | Text Only | Print | Product List | Glossary On
Versions: 1 2 3 4 5 6 7 8 9 10 11 12 13
000
FTUS43 KICT 290520
TAFRSL
TAF
KRSL 290520Z 2906/3006 20009KT P6SM OVC300
     FM291500 25008KT P6SM BKN300
     FM300000 21008KT P6SM BKN250=

USA.gov is the U.S. government's official web portal to all federal, state and local government web resources and services.